createdAt,value
2022-11-28T00:01:28.368Z,4.64
2022-11-28T00:03:55.225Z,4.64
2022-11-28T00:06:22.149Z,4.69
2022-11-28T00:08:49.239Z,4.77
2022-11-28T00:11:17.541Z,4.79
2022-11-28T00:13:46.736Z,4.82
2022-11-28T00:16:16.742Z,4.79
2022-11-28T00:18:44.015Z,4.76
2022-11-28T00:21:13.092Z,4.74
2022-11-28T00:23:40.549Z,4.78
2022-11-28T00:26:19.812Z,4.83
2022-11-28T00:28:47.052Z,4.80
2022-11-28T00:31:15.770Z,4.74
2022-11-28T00:33:42.888Z,4.79
2022-11-28T00:36:10.152Z,4.72
2022-11-28T00:38:36.971Z,4.77
2022-11-28T00:41:08.958Z,4.74
2022-11-28T00:43:36.260Z,4.67
2022-11-28T00:46:04.071Z,4.70
2022-11-28T00:48:32.633Z,4.67
2022-11-28T00:51:26.970Z,4.56
2022-11-28T00:53:55.604Z,4.58
2022-11-28T00:56:28.432Z,4.54
2022-11-28T00:58:55.243Z,4.58
2022-11-28T01:01:34.929Z,4.62
2022-11-28T01:04:05.134Z,4.60
2022-11-28T01:06:41.095Z,4.64
2022-11-28T01:09:12.385Z,4.64
2022-11-28T01:11:41.425Z,4.70
2022-11-28T01:14:10.064Z,4.65
2022-11-28T01:16:37.878Z,4.63
2022-11-28T01:19:05.286Z,4.62
2022-11-28T01:21:32.126Z,4.59
2022-11-28T01:23:58.866Z,4.62
2022-11-28T01:26:28.591Z,4.64
2022-11-28T01:28:55.916Z,4.62
2022-11-28T01:31:25.105Z,4.62
2022-11-28T01:33:52.865Z,4.59
2022-11-28T01:36:20.449Z,4.59
2022-11-28T01:38:47.911Z,4.59
2022-11-28T01:41:17.446Z,4.54
2022-11-28T01:44:06.381Z,4.62
2022-11-28T01:46:34.070Z,4.61
2022-11-28T01:49:21.624Z,4.53
2022-11-28T01:51:52.696Z,4.50
2022-11-28T01:54:22.795Z,4.52
2022-11-28T01:56:52.930Z,4.46
2022-11-28T01:59:21.667Z,4.45
2022-11-28T02:01:48.420Z,4.37
2022-11-28T02:04:15.265Z,4.31
2022-11-28T02:06:42.748Z,4.34
2022-11-28T02:09:14.884Z,4.34
2022-11-28T02:12:06.506Z,4.32
2022-11-28T02:14:48.521Z,4.31
2022-11-28T02:17:48.495Z,4.31
2022-11-28T02:20:46.371Z,4.26
2022-11-28T02:23:26.555Z,4.23
2022-11-28T02:26:11.962Z,4.26
2022-11-28T02:28:54.059Z,4.25
2022-11-28T02:31:35.985Z,4.25
2022-11-28T02:34:28.507Z,4.22
2022-11-28T02:37:20.772Z,4.25
2022-11-28T02:40:01.159Z,4.22
2022-11-28T02:42:46.469Z,4.23
2022-11-28T02:45:54.071Z,4.27
2022-11-28T02:48:23.470Z,4.30
2022-11-28T02:51:01.225Z,4.24
2022-11-28T02:53:30.985Z,4.20
2022-11-28T02:55:59.105Z,4.23
2022-11-28T02:58:25.882Z,4.34
2022-11-28T03:00:53.450Z,4.29
2022-11-28T03:03:28.580Z,4.31
2022-11-28T03:06:04.057Z,4.34
2022-11-28T03:08:42.620Z,4.31
2022-11-28T03:11:27.668Z,4.27
2022-11-28T03:14:22.766Z,4.29
2022-11-28T03:17:01.988Z,4.26
2022-11-28T03:19:35.873Z,4.22
2022-11-28T03:22:33.392Z,4.16
2022-11-28T03:25:10.890Z,4.20
2022-11-28T03:27:58.780Z,4.13
2022-11-28T03:30:48.426Z,4.08
2022-11-28T03:33:17.850Z,4.10
2022-11-28T03:35:49.830Z,4.06
2022-11-28T03:38:22.264Z,4.13
2022-11-28T03:40:54.208Z,4.18
2022-11-28T03:43:27.519Z,4.09
2022-11-28T03:45:58.713Z,4.03
2022-11-28T03:48:36.066Z,4.08
2022-11-28T03:51:10.755Z,4.06
2022-11-28T03:53:51.039Z,4.10
2022-11-28T03:56:34.229Z,4.14
2022-11-28T03:59:11.168Z,4.17
2022-11-28T04:02:18.942Z,4.08
2022-11-28T04:04:52.566Z,4.08
2022-11-28T04:07:25.312Z,4.12
2022-11-28T04:10:01.299Z,4.05
2022-11-28T04:12:46.299Z,4.05
2022-11-28T04:15:41.643Z,4.11
2022-11-28T04:18:17.567Z,4.13
2022-11-28T04:21:16.490Z,4.10
2022-11-28T04:23:46.497Z,4.10
2022-11-28T04:26:42.208Z,4.21
2022-11-28T04:29:14.025Z,4.13
2022-11-28T04:31:44.659Z,4.12
2022-11-28T04:34:16.461Z,4.07
2022-11-28T04:36:45.293Z,4.11
2022-11-28T04:39:19.126Z,4.09
2022-11-28T04:41:52.377Z,4.13
2022-11-28T04:44:25.597Z,4.11
2022-11-28T04:46:55.434Z,4.14
2022-11-28T04:49:23.742Z,4.14
2022-11-28T04:52:02.675Z,4.06
2022-11-28T04:54:37.394Z,4.19
2022-11-28T04:57:12.996Z,4.16
2022-11-28T04:59:41.973Z,4.14
2022-11-28T05:02:09.773Z,4.14
2022-11-28T05:04:37.449Z,4.14
2022-11-28T05:07:08.513Z,4.15
2022-11-28T05:09:35.364Z,4.14
2022-11-28T05:12:02.075Z,4.14
2022-11-28T05:14:28.961Z,4.19
2022-11-28T05:16:55.642Z,4.14
2022-11-28T05:19:22.730Z,4.11
2022-11-28T05:21:49.443Z,4.19
2022-11-28T05:24:16.075Z,4.09
2022-11-28T05:26:43.339Z,4.10
2022-11-28T05:29:10.524Z,4.15
2022-11-28T05:31:37.935Z,4.25
2022-11-28T05:34:05.026Z,4.24
2022-11-28T05:36:31.823Z,4.22
2022-11-28T05:38:58.494Z,4.16
2022-11-28T05:41:28.245Z,4.14
2022-11-28T05:43:56.651Z,4.12
2022-11-28T05:46:23.585Z,4.11
2022-11-28T05:48:50.305Z,4.08
2022-11-28T05:51:17.632Z,4.04
2022-11-28T05:53:44.587Z,4.04
2022-11-28T05:56:14.651Z,4.00
2022-11-28T05:58:41.532Z,3.90
2022-11-28T06:01:20.318Z,3.75
2022-11-28T06:03:47.601Z,3.67
2022-11-28T06:06:19.607Z,3.67
2022-11-28T06:08:48.904Z,3.75
2022-11-28T06:11:16.575Z,3.75
2022-11-28T06:13:44.218Z,3.65
2022-11-28T06:16:12.585Z,3.64
2022-11-28T06:18:40.027Z,3.70
2022-11-28T06:21:08.814Z,3.75
2022-11-28T06:23:35.742Z,3.78
2022-11-28T06:26:10.334Z,3.78
2022-11-28T06:28:37.617Z,3.89
2022-11-28T06:31:05.437Z,3.81
2022-11-28T06:33:32.166Z,3.80
2022-11-28T06:36:01.205Z,3.84
2022-11-28T06:38:28.994Z,3.86
2022-11-28T06:41:02.738Z,3.72
2022-11-28T06:43:30.212Z,3.67
2022-11-28T06:45:57.027Z,3.71
2022-11-28T06:48:24.289Z,3.68
2022-11-28T06:50:51.187Z,3.74
2022-11-28T06:53:18.356Z,3.80
2022-11-28T06:55:46.000Z,3.79
2022-11-28T06:58:12.845Z,3.86
2022-11-28T07:00:39.601Z,3.75
2022-11-28T07:03:06.239Z,3.78
2022-11-28T07:05:33.146Z,3.88
2022-11-28T07:08:00.661Z,3.84
2022-11-28T07:10:28.892Z,3.83
2022-11-28T07:13:03.910Z,3.83
2022-11-28T07:15:32.051Z,3.84
2022-11-28T07:17:58.709Z,3.78
2022-11-28T07:20:25.462Z,3.74
2022-11-28T07:22:52.125Z,3.78
2022-11-28T07:25:18.925Z,3.86
2022-11-28T07:27:45.563Z,3.91
2022-11-28T07:30:12.534Z,3.85
2022-11-28T07:32:40.838Z,3.85
2022-11-28T07:35:09.002Z,3.86
2022-11-28T07:37:36.543Z,3.80
2022-11-28T07:40:04.219Z,3.78
2022-11-28T07:42:30.967Z,3.79
2022-11-28T07:45:04.284Z,3.67
2022-11-28T07:47:31.425Z,3.69
2022-11-28T07:49:58.131Z,3.65
2022-11-28T07:52:24.905Z,3.72
2022-11-28T07:54:51.577Z,3.73
2022-11-28T07:57:18.284Z,3.71
2022-11-28T07:59:45.292Z,3.76
2022-11-28T08:02:12.980Z,3.78
2022-11-28T08:04:44.021Z,3.70
2022-11-28T08:07:14.537Z,3.75
2022-11-28T08:09:41.355Z,3.86
2022-11-28T08:12:08.263Z,3.85
2022-11-28T08:14:35.066Z,3.88
2022-11-28T08:17:01.958Z,3.82
2022-11-28T08:19:33.790Z,3.73
2022-11-28T08:22:01.873Z,3.67
2022-11-28T08:24:28.478Z,3.66
2022-11-28T08:26:55.145Z,3.62
2022-11-28T08:29:21.783Z,3.58
2022-11-28T08:31:48.550Z,3.64
2022-11-28T08:34:15.257Z,3.60
2022-11-28T08:36:43.450Z,3.56
2022-11-28T08:39:26.775Z,3.53
2022-11-28T08:41:57.268Z,3.66
2022-11-28T08:44:24.403Z,3.83
2022-11-28T08:46:51.326Z,3.67
2022-11-28T08:49:18.129Z,3.57
2022-11-28T08:51:45.061Z,3.63
2022-11-28T08:54:12.048Z,3.72
2022-11-28T08:56:38.691Z,3.76
2022-11-28T08:59:07.007Z,3.83
2022-11-28T09:01:34.545Z,3.90
2022-11-28T09:04:01.395Z,3.83
2022-11-28T09:06:28.249Z,3.74
2022-11-28T09:08:54.940Z,3.76
2022-11-28T09:11:23.017Z,3.79
2022-11-28T09:13:49.891Z,3.77
2022-11-28T09:16:16.788Z,3.74
2022-11-28T09:18:43.598Z,3.71
2022-11-28T09:21:12.921Z,3.66
2022-11-28T09:23:41.215Z,3.50
2022-11-28T09:26:13.613Z,3.47
2022-11-28T09:28:40.708Z,3.50
2022-11-28T09:31:07.978Z,3.49
2022-11-28T09:33:35.868Z,3.50
2022-11-28T09:36:11.411Z,3.45
2022-11-28T09:38:38.524Z,3.52
2022-11-28T09:41:31.063Z,3.46
2022-11-28T09:44:36.236Z,3.43
2022-11-28T09:47:12.235Z,3.47
2022-11-28T09:50:20.857Z,3.63
2022-11-28T09:52:48.386Z,3.48
2022-11-28T09:55:40.995Z,3.38
2022-11-28T09:58:28.819Z,3.32
2022-11-28T10:01:05.570Z,3.31
2022-11-28T10:03:48.628Z,3.24
2022-11-28T10:06:26.084Z,3.26
2022-11-28T10:09:01.625Z,3.32
2022-11-28T10:11:34.368Z,3.28
2022-11-28T10:14:35.047Z,3.31
2022-11-28T10:17:13.322Z,3.28
2022-11-28T10:19:56.653Z,3.22
2022-11-28T10:22:43.328Z,3.25
2022-11-28T10:25:21.320Z,3.27
2022-11-28T10:27:50.567Z,3.24
2022-11-28T10:30:26.358Z,3.29
2022-11-28T10:33:12.555Z,3.36
2022-11-28T10:35:52.149Z,3.40
2022-11-28T10:38:25.610Z,3.39
2022-11-28T10:41:04.352Z,3.33
2022-11-28T10:43:55.550Z,3.39
2022-11-28T10:46:57.105Z,3.53
2022-11-28T10:49:53.780Z,3.52
2022-11-28T10:52:30.557Z,3.54
2022-11-28T10:55:13.738Z,3.63
2022-11-28T10:58:05.331Z,3.74
2022-11-28T11:00:34.205Z,3.84
2022-11-28T11:03:03.334Z,3.82
2022-11-28T11:05:33.653Z,3.77
2022-11-28T11:08:10.798Z,3.81
2022-11-28T11:11:12.924Z,3.79
2022-11-28T11:14:03.063Z,3.80
2022-11-28T11:16:49.758Z,3.90
2022-11-28T11:19:42.863Z,3.88
2022-11-28T11:22:12.667Z,3.80
2022-11-28T11:24:39.448Z,3.87
2022-11-28T11:27:19.489Z,4.05
2022-11-28T11:29:50.293Z,4.13
2022-11-28T11:32:22.060Z,4.03
2022-11-28T11:34:49.887Z,4.03
2022-11-28T11:37:38.120Z,4.14
2022-11-28T11:40:25.916Z,4.16
2022-11-28T11:42:58.471Z,4.15
2022-11-28T11:45:34.468Z,4.21
2022-11-28T11:48:02.606Z,4.25
2022-11-28T11:50:31.491Z,4.28
2022-11-28T11:53:10.584Z,4.20
2022-11-28T11:55:48.059Z,4.17
2022-11-28T11:58:43.737Z,4.19
2022-11-28T12:01:13.560Z,4.17
2022-11-28T12:03:55.157Z,4.20
2022-11-28T12:06:50.350Z,4.12
2022-11-28T12:09:22.769Z,4.19
2022-11-28T12:11:55.796Z,4.16
2022-11-28T12:14:30.596Z,4.17
2022-11-28T12:17:25.674Z,4.13
2022-11-28T12:20:39.534Z,4.21
2022-11-28T12:23:25.434Z,4.23
2022-11-28T12:26:21.102Z,4.28
2022-11-28T12:29:28.613Z,4.41
2022-11-28T12:32:18.172Z,4.30
2022-11-28T12:34:53.841Z,4.37
2022-11-28T12:41:09.360Z,4.45
2022-11-28T12:43:53.856Z,4.59
2022-11-28T12:46:32.031Z,4.58
2022-11-28T12:49:14.437Z,4.60
2022-11-28T12:51:52.345Z,4.56
2022-11-28T12:54:41.560Z,4.53
2022-11-28T12:57:12.927Z,4.48
2022-11-28T13:00:08.136Z,4.43
2022-11-28T13:03:01.282Z,4.39
2022-11-28T13:05:46.932Z,4.44
2022-11-28T13:08:33.799Z,4.51
2022-11-28T13:11:03.187Z,4.58
2022-11-28T13:13:41.411Z,4.55
2022-11-28T13:16:38.467Z,4.57
2022-11-28T13:19:20.337Z,4.60
2022-11-28T13:22:10.404Z,4.47
2022-11-28T13:24:36.979Z,4.66
2022-11-28T13:27:33.146Z,4.65
2022-11-28T13:30:13.379Z,4.56
2022-11-28T13:33:06.656Z,4.61
2022-11-28T13:35:35.077Z,4.52
2022-11-28T13:42:00.863Z,4.37
2022-11-28T13:44:29.329Z,4.46
2022-11-28T13:46:56.767Z,4.55
2022-11-28T13:49:27.798Z,4.57
2022-11-28T13:52:19.461Z,4.50
2022-11-28T13:54:53.873Z,4.43
2022-11-28T13:57:39.801Z,4.44
2022-11-28T14:00:22.911Z,4.36
2022-11-28T14:03:00.693Z,4.41
2022-11-28T14:05:38.144Z,4.39
2022-11-28T14:08:07.197Z,4.28
2022-11-28T14:10:58.909Z,4.39
2022-11-28T14:13:31.860Z,4.36
2022-11-28T14:16:25.776Z,4.39
2022-11-28T14:19:03.637Z,4.37
2022-11-28T14:21:59.717Z,4.30
2022-11-28T14:24:38.462Z,4.29
2022-11-28T14:27:06.613Z,4.37
2022-11-28T14:29:41.434Z,4.25
2022-11-28T14:32:30.664Z,4.19
2022-11-28T14:35:00.382Z,4.34
2022-11-28T14:37:28.717Z,4.36
2022-11-28T14:39:57.497Z,4.25
2022-11-28T14:45:46.269Z,4.28
2022-11-28T14:48:23.767Z,4.19
2022-11-28T14:51:00.570Z,4.18
2022-11-28T14:53:34.725Z,4.24
2022-11-28T14:56:31.050Z,4.25
2022-11-28T14:59:01.714Z,4.21
2022-11-28T15:01:38.374Z,4.17
2022-11-28T15:04:16.056Z,4.07
2022-11-28T15:06:43.759Z,4.10
2022-11-28T15:09:29.324Z,4.13
2022-11-28T15:12:17.800Z,4.06
2022-11-28T15:14:51.808Z,3.98
2022-11-28T15:17:23.101Z,4.00
2022-11-28T15:19:50.053Z,3.99
2022-11-28T15:22:46.951Z,4.00
2022-11-28T15:25:37.164Z,4.01
2022-11-28T15:28:18.259Z,3.96
2022-11-28T15:30:48.074Z,3.91
2022-11-28T15:33:15.007Z,3.91
2022-11-28T15:35:59.778Z,3.84
2022-11-28T15:38:28.551Z,3.83
2022-11-28T15:40:56.603Z,3.93
2022-11-28T15:43:24.825Z,3.92
2022-11-28T15:46:00.129Z,3.97
2022-11-28T15:48:40.372Z,3.92
2022-11-28T15:51:08.635Z,3.96
2022-11-28T15:53:40.990Z,4.04
2022-11-28T15:56:12.204Z,4.01
2022-11-28T15:58:40.526Z,4.02
2022-11-28T16:01:18.139Z,3.90
2022-11-28T16:03:51.217Z,3.90
2022-11-28T16:06:19.356Z,3.85
2022-11-28T16:08:52.247Z,3.87
2022-11-28T16:11:22.398Z,3.91
2022-11-28T16:13:50.329Z,3.83
2022-11-28T16:16:25.236Z,3.81
2022-11-28T16:19:04.397Z,3.78
2022-11-28T16:21:57.788Z,3.74
2022-11-28T16:24:40.461Z,3.72
2022-11-28T16:27:07.132Z,3.69
2022-11-28T16:29:36.076Z,3.64
2022-11-28T16:32:19.604Z,3.64
2022-11-28T16:34:49.092Z,3.76
2022-11-28T16:37:27.529Z,3.67
2022-11-28T16:40:01.299Z,3.56
2022-11-28T16:42:28.435Z,3.61
2022-11-28T16:44:55.222Z,3.60
2022-11-28T16:47:30.608Z,3.47
2022-11-28T16:50:15.418Z,3.56
2022-11-28T16:53:29.119Z,3.58
2022-11-28T16:55:55.892Z,3.52
2022-11-28T16:58:23.361Z,3.69
2022-11-28T17:01:00.071Z,3.59
2022-11-28T17:03:44.468Z,3.71
2022-11-28T17:06:28.592Z,3.59
2022-11-28T17:08:58.493Z,3.52
2022-11-28T17:11:29.521Z,3.57
2022-11-28T17:13:57.841Z,3.44
2022-11-28T17:16:26.645Z,3.38
2022-11-28T17:18:53.603Z,3.43
2022-11-28T17:21:42.033Z,3.49
2022-11-28T17:24:24.248Z,3.50
2022-11-28T17:26:52.780Z,3.52
2022-11-28T17:29:21.509Z,3.46
2022-11-28T17:31:48.901Z,3.48
2022-11-28T17:34:27.375Z,3.36
2022-11-28T17:36:54.086Z,3.39
2022-11-28T17:39:21.012Z,3.34
2022-11-28T17:41:48.733Z,3.34
2022-11-28T17:44:21.760Z,3.35
2022-11-28T17:46:50.630Z,3.28
2022-11-28T17:49:19.119Z,3.22
2022-11-28T17:51:46.170Z,3.20
2022-11-28T17:54:17.835Z,3.25
2022-11-28T17:56:45.763Z,3.32
2022-11-28T17:59:14.052Z,3.29
2022-11-28T18:01:41.356Z,3.33
2022-11-28T18:04:08.079Z,3.35
2022-11-28T18:06:35.143Z,3.33
2022-11-28T18:09:10.142Z,3.30
2022-11-28T18:11:39.439Z,3.24
2022-11-28T18:14:06.257Z,3.20
2022-11-28T18:16:35.593Z,3.22
2022-11-28T18:19:03.024Z,3.11
2022-11-28T18:21:29.783Z,3.09
2022-11-28T18:23:56.586Z,3.05
2022-11-28T18:26:25.998Z,3.15
2022-11-28T18:28:53.725Z,3.22
2022-11-28T18:31:23.993Z,3.15
2022-11-28T18:33:51.485Z,3.16
2022-11-28T18:36:23.147Z,3.19
2022-11-28T18:38:54.154Z,3.19
2022-11-28T18:41:20.924Z,3.08
2022-11-28T18:43:48.183Z,3.13
2022-11-28T18:46:20.840Z,3.20
2022-11-28T18:48:48.415Z,3.16
2022-11-28T18:51:21.699Z,3.14
2022-11-28T18:53:50.300Z,3.16
2022-11-28T18:56:18.044Z,3.10
2022-11-28T18:58:47.954Z,3.17
2022-11-28T19:01:17.610Z,3.17
2022-11-28T19:03:49.556Z,3.16
2022-11-28T19:06:18.254Z,3.16
2022-11-28T19:08:44.960Z,3.07
2022-11-28T19:11:15.069Z,3.13
2022-11-28T19:13:44.171Z,3.05
2022-11-28T19:16:16.560Z,3.07
2022-11-28T19:18:44.465Z,3.17
2022-11-28T19:21:14.055Z,3.15
2022-11-28T19:23:41.239Z,3.08
2022-11-28T19:26:13.889Z,2.94
2022-11-28T19:28:41.748Z,2.96
2022-11-28T19:31:09.518Z,2.93
2022-11-28T19:33:36.319Z,3.05
2022-11-28T19:36:08.385Z,3.12
2022-11-28T19:38:36.402Z,3.17
2022-11-28T19:41:07.414Z,3.13
2022-11-28T19:43:35.076Z,3.10
2022-11-28T19:46:03.043Z,3.05
2022-11-28T19:48:32.385Z,3.05
2022-11-28T19:50:59.973Z,2.98
2022-11-28T19:53:28.822Z,2.93
2022-11-28T19:55:56.357Z,3.06
2022-11-28T19:58:23.397Z,3.10
2022-11-28T20:00:50.639Z,3.14
2022-11-28T20:03:17.383Z,3.20
2022-11-28T20:05:44.208Z,3.15
2022-11-28T20:08:11.039Z,3.02
2022-11-28T20:10:39.444Z,2.98
2022-11-28T20:13:07.208Z,2.91
2022-11-28T20:15:37.376Z,2.99
2022-11-28T20:18:04.783Z,3.02
2022-11-28T20:20:33.860Z,3.06
2022-11-28T20:23:01.553Z,3.19
2022-11-28T20:25:28.358Z,3.22
2022-11-28T20:27:55.196Z,3.19
2022-11-28T20:30:22.769Z,3.17
2022-11-28T20:32:49.796Z,3.15
2022-11-28T20:35:17.932Z,3.13
2022-11-28T20:37:44.618Z,3.07
2022-11-28T20:40:11.788Z,3.10
2022-11-28T20:42:40.118Z,3.19
2022-11-28T20:45:07.611Z,3.23
2022-11-28T20:47:34.962Z,3.21
2022-11-28T20:50:01.804Z,3.17
2022-11-28T20:52:28.522Z,3.17
2022-11-28T20:54:55.345Z,3.16
2022-11-28T20:57:22.623Z,3.13
2022-11-28T20:59:49.589Z,3.14
2022-11-28T21:02:16.394Z,3.21
2022-11-28T21:04:43.080Z,3.23
2022-11-28T21:07:09.845Z,3.22
2022-11-28T21:09:36.599Z,3.22
2022-11-28T21:12:03.298Z,3.22
2022-11-28T21:14:30.059Z,3.22
2022-11-28T21:16:58.080Z,3.24
2022-11-28T21:19:25.137Z,3.22
2022-11-28T21:21:51.851Z,3.21
2022-11-28T21:24:18.524Z,3.19
2022-11-28T21:26:49.756Z,3.17
2022-11-28T21:29:20.127Z,3.19
2022-11-28T21:31:47.210Z,3.18
2022-11-28T21:34:15.522Z,3.14
2022-11-28T21:36:42.688Z,3.17
2022-11-28T21:39:14.776Z,3.15
2022-11-28T21:41:41.738Z,3.11
2022-11-28T21:44:09.074Z,3.12
2022-11-28T21:46:35.907Z,3.08
2022-11-28T21:49:02.729Z,3.11
2022-11-28T21:51:29.494Z,3.11
2022-11-28T21:53:57.569Z,3.01
2022-11-28T21:56:25.383Z,3.02
2022-11-28T21:58:53.485Z,2.95
2022-11-28T22:01:21.342Z,2.90
2022-11-28T22:03:49.322Z,2.97
2022-11-28T22:06:21.405Z,2.87
2022-11-28T22:08:49.254Z,2.87
2022-11-28T22:11:16.511Z,2.91
2022-11-28T22:13:47.535Z,2.86
2022-11-28T22:16:17.219Z,2.85
2022-11-28T22:18:44.554Z,2.81
2022-11-28T22:21:43.206Z,2.84
2022-11-28T22:23:58.779Z,2.83
2022-11-28T22:26:26.065Z,2.80
2022-11-28T22:28:53.729Z,2.81
2022-11-28T22:31:23.190Z,2.84
2022-11-28T22:33:50.644Z,2.81
2022-11-28T22:36:19.467Z,2.84
2022-11-28T22:38:47.799Z,2.81
2022-11-28T22:41:24.866Z,2.85
2022-11-28T22:43:57.589Z,2.83
2022-11-28T22:46:24.503Z,2.88
2022-11-28T22:48:52.041Z,2.85
2022-11-28T22:51:21.483Z,2.80
2022-11-28T22:53:48.320Z,2.72
2022-11-28T22:56:15.877Z,2.74
2022-11-28T22:58:44.782Z,2.72
2022-11-28T23:01:18.898Z,2.68
2022-11-28T23:03:46.772Z,2.69
2022-11-28T23:06:19.717Z,2.73
2022-11-28T23:08:48.689Z,2.73
2022-11-28T23:11:18.014Z,2.77
2022-11-28T23:13:48.307Z,2.72
2022-11-28T23:16:28.868Z,2.78
2022-11-28T23:18:59.146Z,2.72
2022-11-28T23:21:28.863Z,2.72
2022-11-28T23:23:55.461Z,2.78
2022-11-28T23:26:24.651Z,2.75
2022-11-28T23:28:53.116Z,2.78
2022-11-28T23:31:26.204Z,2.78
2022-11-28T23:33:54.871Z,2.78
2022-11-28T23:36:21.729Z,2.77
2022-11-28T23:38:51.471Z,2.77
2022-11-28T23:41:18.847Z,2.80
2022-11-28T23:43:46.087Z,2.79
2022-11-28T23:46:14.130Z,2.84
2022-11-28T23:48:42.579Z,2.84
2022-11-28T23:51:10.121Z,2.85
2022-11-28T23:53:36.930Z,2.88
2022-11-28T23:56:24.841Z,2.91
2022-11-28T23:58:52.639Z,2.86
